createdAt,value
2023-05-12T00:00:11.856Z,14.71
2023-05-12T00:02:39.926Z,14.51
2023-05-12T00:05:08.796Z,14.31
2023-05-12T00:07:39.306Z,14.20
2023-05-12T00:10:08.188Z,14.27
2023-05-12T00:12:36.526Z,14.35
2023-05-12T00:15:06.123Z,14.25
2023-05-12T00:17:34.523Z,14.22
2023-05-12T00:20:02.896Z,14.19
2023-05-12T00:22:32.845Z,14.51
2023-05-12T00:25:02.458Z,14.58
2023-05-12T00:27:32.200Z,14.51
2023-05-12T00:30:00.589Z,14.74
2023-05-12T00:32:28.724Z,14.77
2023-05-12T00:34:57.412Z,14.84
2023-05-12T00:37:25.647Z,14.78
2023-05-12T00:39:53.765Z,14.75
2023-05-12T00:42:23.167Z,14.93
2023-05-12T00:44:53.620Z,14.90
2023-05-12T00:47:24.125Z,14.75
2023-05-12T00:49:55.201Z,14.85
2023-05-12T00:52:26.213Z,14.97
2023-05-12T00:54:54.629Z,15.01
2023-05-12T00:57:26.771Z,14.90
2023-05-12T00:59:55.298Z,14.96
2023-05-12T01:02:23.720Z,15.00
2023-05-12T01:04:52.382Z,15.11
2023-05-12T01:07:23.733Z,15.16
2023-05-12T01:09:56.534Z,15.04
2023-05-12T01:12:27.871Z,14.96
2023-05-12T01:14:57.385Z,15.09
2023-05-12T01:17:30.370Z,14.91
2023-05-12T01:20:01.618Z,14.86
2023-05-12T01:22:33.154Z,14.75
2023-05-12T01:25:04.354Z,14.74
2023-05-12T01:27:35.762Z,14.84
2023-05-12T01:30:05.951Z,14.78
2023-05-12T01:32:34.495Z,14.62
2023-05-12T01:35:03.557Z,14.98
2023-05-12T01:37:31.451Z,14.99
2023-05-12T01:39:59.894Z,14.99
2023-05-12T01:42:28.907Z,14.88
2023-05-12T01:44:58.291Z,14.79
2023-05-12T01:47:26.916Z,15.07
2023-05-12T01:49:55.347Z,14.85
2023-05-12T01:52:25.261Z,15.05
2023-05-12T01:54:53.355Z,15.14
2023-05-12T01:57:21.981Z,15.02
2023-05-12T01:59:50.124Z,14.95
2023-05-12T02:02:19.858Z,14.73
2023-05-12T02:04:48.549Z,14.85
2023-05-12T02:07:16.901Z,14.87
2023-05-12T02:09:44.887Z,14.93
2023-05-12T02:12:13.754Z,14.70
2023-05-12T02:14:41.910Z,14.85
2023-05-12T02:17:09.964Z,15.00
2023-05-12T02:19:39.672Z,14.81
2023-05-12T02:22:08.018Z,15.00
2023-05-12T02:24:36.046Z,15.08
2023-05-12T02:27:04.707Z,15.11
2023-05-12T02:29:32.968Z,15.08
2023-05-12T02:32:01.715Z,15.00
2023-05-12T02:34:30.941Z,15.06
2023-05-12T02:37:00.706Z,14.99
2023-05-12T02:39:28.749Z,15.12
2023-05-12T02:41:57.284Z,15.08
2023-05-12T02:44:27.242Z,14.76
2023-05-12T02:46:58.533Z,14.67
2023-05-12T02:49:26.468Z,14.92
2023-05-12T02:51:55.634Z,14.77
2023-05-12T02:54:24.981Z,14.71
2023-05-12T02:56:53.368Z,14.59
2023-05-12T02:59:22.298Z,14.63
2023-05-12T03:01:50.540Z,14.45
2023-05-12T03:04:19.340Z,14.21
2023-05-12T03:06:47.808Z,14.21
2023-05-12T03:09:16.675Z,14.35
2023-05-12T03:11:46.632Z,14.32
2023-05-12T03:14:15.452Z,14.44
2023-05-12T03:16:44.031Z,14.48
2023-05-12T03:19:12.105Z,14.57
2023-05-12T03:21:40.826Z,14.25
2023-05-12T03:24:09.649Z,14.14
2023-05-12T03:26:38.227Z,14.00
2023-05-12T03:29:08.036Z,14.20
2023-05-12T03:31:36.836Z,14.16
2023-05-12T03:34:04.905Z,14.02
2023-05-12T03:36:33.108Z,13.96
2023-05-12T03:39:03.321Z,13.97
2023-05-12T03:41:31.367Z,14.04
2023-05-12T03:44:01.264Z,13.85
2023-05-12T03:46:31.873Z,13.89
2023-05-12T03:48:59.956Z,13.64
2023-05-12T03:51:28.329Z,13.92
2023-05-12T03:53:56.843Z,14.00
2023-05-12T03:56:24.926Z,14.30
2023-05-12T03:58:52.961Z,14.46
2023-05-12T04:01:21.344Z,14.33
2023-05-12T04:03:50.971Z,14.45
2023-05-12T04:06:19.133Z,14.50
2023-05-12T04:08:47.533Z,14.54
2023-05-12T04:11:18.789Z,14.57
2023-05-12T04:13:46.864Z,14.38
2023-05-12T04:16:15.419Z,14.69
2023-05-12T04:18:43.436Z,14.65
2023-05-12T04:21:13.006Z,15.04
2023-05-12T04:23:41.647Z,15.19
2023-05-12T04:26:09.965Z,15.15
2023-05-12T04:28:38.498Z,15.01
2023-05-12T04:31:07.359Z,15.04
2023-05-12T04:33:35.539Z,15.03
2023-05-12T04:36:03.783Z,15.14
2023-05-12T04:38:33.717Z,15.22
2023-05-12T04:41:02.114Z,15.14
2023-05-12T04:46:06.593Z,14.66
2023-05-12T04:48:34.958Z,14.45
2023-05-12T04:51:02.982Z,14.69
2023-05-12T04:53:35.055Z,15.03
2023-05-12T04:56:03.979Z,15.15
2023-05-12T04:58:31.977Z,15.33
2023-05-12T05:01:03.681Z,15.33
2023-05-12T05:03:31.990Z,15.51
2023-05-12T05:06:02.572Z,15.79
2023-05-12T05:08:31.002Z,15.74
2023-05-12T05:11:00.411Z,15.84
2023-05-12T05:13:28.523Z,15.81
2023-05-12T05:15:57.129Z,15.88
2023-05-12T05:18:25.632Z,16.25
2023-05-12T05:20:58.544Z,16.25
2023-05-12T05:23:27.894Z,16.26
2023-05-12T05:25:56.261Z,16.72
2023-05-12T05:28:28.450Z,16.36
2023-05-12T05:30:56.704Z,16.70
2023-05-12T05:33:25.231Z,16.89
2023-05-12T05:35:55.117Z,17.09
2023-05-12T05:38:23.569Z,17.10
2023-05-12T05:40:54.236Z,17.11
2023-05-12T05:43:23.695Z,16.88
2023-05-12T05:45:53.094Z,17.32
2023-05-12T05:48:21.959Z,17.24
2023-05-12T05:50:52.058Z,17.30
2023-05-12T05:53:23.057Z,17.21
2023-05-12T05:55:51.643Z,16.51
2023-05-12T05:58:19.704Z,16.69
2023-05-12T06:00:47.899Z,16.98
2023-05-12T06:03:18.255Z,16.82
2023-05-12T06:05:47.884Z,17.47
2023-05-12T06:08:16.888Z,17.54
2023-05-12T06:10:45.727Z,17.92
2023-05-12T06:13:13.887Z,18.62
2023-05-12T06:15:42.075Z,18.02
2023-05-12T06:18:12.392Z,17.90
2023-05-12T06:20:42.358Z,18.93
2023-05-12T06:23:10.960Z,18.50
2023-05-12T06:25:39.781Z,18.85
2023-05-12T06:28:08.540Z,19.18
2023-05-12T06:30:36.807Z,18.90
2023-05-12T06:33:05.656Z,19.23
2023-05-12T06:35:33.994Z,19.30
2023-05-12T06:38:03.326Z,18.87
2023-05-12T06:40:31.678Z,18.99
2023-05-12T06:42:59.767Z,19.13
2023-05-12T06:45:27.911Z,19.12
2023-05-12T06:47:58.045Z,19.42
2023-05-12T06:50:26.559Z,18.91
2023-05-12T06:52:54.581Z,18.86
2023-05-12T06:55:24.941Z,18.90
2023-05-12T06:57:56.159Z,18.91
2023-05-12T07:00:24.861Z,19.08
2023-05-12T07:02:54.969Z,18.78
2023-05-12T07:05:24.769Z,19.31
2023-05-12T07:07:53.379Z,19.46
2023-05-12T07:10:22.651Z,18.77
2023-05-12T07:12:52.396Z,19.53
2023-05-12T07:15:20.977Z,20.23
2023-05-12T07:17:50.302Z,19.81
2023-05-12T07:20:19.453Z,18.94
2023-05-12T07:22:48.757Z,19.55
2023-05-12T07:25:18.087Z,19.26
2023-05-12T07:27:47.228Z,20.23
2023-05-12T07:30:18.093Z,20.30
2023-05-12T07:32:46.327Z,21.08
2023-05-12T07:35:14.413Z,22.85
2023-05-12T07:37:43.003Z,24.49
2023-05-12T07:40:11.552Z,25.44
2023-05-12T07:42:39.734Z,24.85
2023-05-12T07:45:09.240Z,23.30
2023-05-12T07:47:40.110Z,22.13
2023-05-12T07:50:08.772Z,22.89
2023-05-12T07:52:38.204Z,23.28
2023-05-12T07:55:07.285Z,24.18
2023-05-12T07:57:35.459Z,23.21
2023-05-12T08:00:05.699Z,24.97
2023-05-12T08:02:34.312Z,26.38
2023-05-12T08:05:04.807Z,25.18
2023-05-12T08:07:33.860Z,23.97
2023-05-12T08:10:02.148Z,25.81
2023-05-12T08:12:31.233Z,23.63
2023-05-12T08:14:59.846Z,24.63
2023-05-12T08:17:29.259Z,26.64
2023-05-12T08:19:57.968Z,24.05
2023-05-12T08:22:27.611Z,24.86
2023-05-12T08:24:56.097Z,25.81
2023-05-12T08:27:24.463Z,26.00
2023-05-12T08:29:52.747Z,26.92
2023-05-12T08:32:21.128Z,24.45
2023-05-12T08:34:50.062Z,26.36
2023-05-12T08:37:18.840Z,25.85
2023-05-12T08:39:48.578Z,25.03
2023-05-12T08:42:31.986Z,23.41
2023-05-12T08:45:02.138Z,25.48
2023-05-12T08:47:33.635Z,24.63
2023-05-12T08:50:04.414Z,24.89
2023-05-12T08:52:37.330Z,25.72
2023-05-12T08:55:08.342Z,23.33
2023-05-12T08:57:39.783Z,23.57
2023-05-12T09:00:10.917Z,22.49
2023-05-12T09:02:51.937Z,22.10
2023-05-12T09:05:21.276Z,23.76
2023-05-12T09:07:52.205Z,23.30
2023-05-12T09:10:33.607Z,21.57
2023-05-12T09:13:06.301Z,21.21
2023-05-12T09:15:40.918Z,22.65
2023-05-12T09:18:09.866Z,21.46
2023-05-12T09:20:38.568Z,21.20
2023-05-12T09:23:15.945Z,21.42
2023-05-12T09:25:47.089Z,22.18
2023-05-12T09:28:16.818Z,23.06
2023-05-12T09:30:45.196Z,21.80
2023-05-12T09:33:15.042Z,23.53
2023-05-12T09:35:45.245Z,21.50
2023-05-12T09:38:14.836Z,22.05
2023-05-12T09:40:44.367Z,22.94
2023-05-12T09:43:17.956Z,22.38
2023-05-12T09:45:50.295Z,21.73
2023-05-12T09:48:19.523Z,21.24
2023-05-12T09:50:50.576Z,21.35
2023-05-12T09:53:20.257Z,22.04
2023-05-12T09:55:49.953Z,23.87
2023-05-12T09:58:22.026Z,23.19
2023-05-12T10:03:28.000Z,22.43
2023-05-12T10:06:00.282Z,22.41
2023-05-12T10:08:36.861Z,22.42
2023-05-12T10:11:07.176Z,22.74
2023-05-12T10:13:37.300Z,22.55
2023-05-12T10:16:06.824Z,22.27
2023-05-12T10:18:36.159Z,23.75
2023-05-12T10:21:05.619Z,23.99
2023-05-12T10:23:37.769Z,22.92
2023-05-12T10:26:07.978Z,22.96
2023-05-12T10:28:37.907Z,23.11
2023-05-12T10:31:08.892Z,22.84
2023-05-12T10:33:37.503Z,24.05
2023-05-12T10:36:06.609Z,22.25
2023-05-12T10:38:38.680Z,23.93
2023-05-12T10:41:08.615Z,22.52
2023-05-12T10:43:44.529Z,22.21
2023-05-12T10:46:18.779Z,22.38
2023-05-12T10:48:56.486Z,22.89
2023-05-12T10:51:28.848Z,22.41
2023-05-12T10:54:02.246Z,23.77
2023-05-12T10:56:32.654Z,23.42
2023-05-12T10:59:14.768Z,22.81
2023-05-12T11:01:44.627Z,22.38
2023-05-12T11:04:16.286Z,22.96
2023-05-12T11:06:47.116Z,21.76
2023-05-12T11:09:17.667Z,22.21
2023-05-12T11:11:47.643Z,22.26
2023-05-12T11:14:19.790Z,22.44
2023-05-12T11:16:48.273Z,23.18
2023-05-12T11:19:20.398Z,21.73
2023-05-12T11:21:50.013Z,20.75
2023-05-12T11:24:18.957Z,22.64
2023-05-12T11:26:51.795Z,22.34
2023-05-12T11:29:22.775Z,21.86
2023-05-12T11:31:52.206Z,23.67
2023-05-12T11:34:23.682Z,23.08
2023-05-12T11:36:53.716Z,22.32
2023-05-12T11:39:24.029Z,22.68
2023-05-12T11:41:59.297Z,22.80
2023-05-12T11:44:35.870Z,23.40
2023-05-12T11:47:12.106Z,23.74
2023-05-12T11:49:48.408Z,22.81
2023-05-12T11:52:22.932Z,21.78
2023-05-12T11:54:52.254Z,22.96
2023-05-12T11:57:28.320Z,21.68
2023-05-12T12:00:03.012Z,22.39
2023-05-12T12:02:31.736Z,22.58
2023-05-12T12:04:59.938Z,22.65
2023-05-12T12:07:32.672Z,21.55
2023-05-12T12:10:11.844Z,22.23
2023-05-12T12:12:40.674Z,20.98
2023-05-12T12:15:11.074Z,22.15
2023-05-12T12:17:39.843Z,21.28
2023-05-12T12:20:10.556Z,22.21
2023-05-12T12:22:38.683Z,21.96
2023-05-12T12:25:08.157Z,22.59
2023-05-12T12:27:36.750Z,22.60
2023-05-12T12:30:05.271Z,22.29
2023-05-12T12:32:34.820Z,24.06
2023-05-12T12:35:04.812Z,24.17
2023-05-12T12:37:33.303Z,23.11
2023-05-12T12:40:08.480Z,22.93
2023-05-12T12:42:37.722Z,24.18
2023-05-12T12:45:06.838Z,25.98
2023-05-12T12:47:37.344Z,22.97
2023-05-12T12:50:05.915Z,23.36
2023-05-12T12:52:34.657Z,23.58
2023-05-12T12:55:03.375Z,22.69
2023-05-12T12:57:32.643Z,24.12
2023-05-12T13:00:01.447Z,23.95
2023-05-12T13:02:30.131Z,23.42
2023-05-12T13:05:03.779Z,23.58
2023-05-12T13:07:35.500Z,23.27
2023-05-12T13:10:03.922Z,22.98
2023-05-12T13:12:33.083Z,22.41
2023-05-12T13:15:02.214Z,22.66
2023-05-12T13:17:30.486Z,22.37
2023-05-12T13:20:00.555Z,21.52
2023-05-12T13:22:29.150Z,21.69
2023-05-12T13:24:57.686Z,22.07
2023-05-12T13:27:26.517Z,22.14
2023-05-12T13:29:54.768Z,22.21
2023-05-12T13:32:23.055Z,21.37
2023-05-12T13:34:51.637Z,22.15
2023-05-12T13:37:21.499Z,21.82
2023-05-12T13:39:49.941Z,21.55
2023-05-12T13:42:18.738Z,20.57
2023-05-12T13:44:47.155Z,20.63
2023-05-12T13:47:15.723Z,20.52
2023-05-12T13:49:44.147Z,20.19
2023-05-12T13:52:12.288Z,20.28
2023-05-12T13:54:42.411Z,20.52
2023-05-12T13:57:11.296Z,20.64
2023-05-12T13:59:39.570Z,20.92
2023-05-12T14:02:09.731Z,20.79
2023-05-12T14:04:38.723Z,20.86
2023-05-12T14:07:08.574Z,20.45
2023-05-12T14:09:37.732Z,20.46
2023-05-12T14:12:09.659Z,20.04
2023-05-12T14:14:37.811Z,20.24
2023-05-12T14:17:07.244Z,20.85
2023-05-12T14:19:36.890Z,20.10
2023-05-12T14:22:09.948Z,20.13
2023-05-12T14:24:47.367Z,20.83
2023-05-12T14:27:17.086Z,20.30
2023-05-12T14:29:45.152Z,20.76
2023-05-12T14:32:14.130Z,20.57
2023-05-12T14:34:42.195Z,20.43
2023-05-12T14:37:10.309Z,20.51
2023-05-12T14:39:39.040Z,20.91
2023-05-12T14:42:07.677Z,20.54
2023-05-12T14:44:39.658Z,20.72
2023-05-12T14:47:08.976Z,20.36
2023-05-12T14:49:38.535Z,19.76
2023-05-12T14:52:07.876Z,20.16
2023-05-12T14:54:36.112Z,21.02
2023-05-12T14:57:05.364Z,21.25
2023-05-12T14:59:34.301Z,21.45
2023-05-12T15:02:03.832Z,20.47
2023-05-12T15:04:32.294Z,21.42
2023-05-12T15:07:00.878Z,20.77
2023-05-12T15:09:29.560Z,20.74
2023-05-12T15:11:57.939Z,20.78
2023-05-12T15:14:26.866Z,20.93
2023-05-12T15:16:55.276Z,21.38
2023-05-12T15:19:24.916Z,22.07
2023-05-12T15:21:53.396Z,22.00
2023-05-12T15:24:21.569Z,22.69
2023-05-12T15:26:49.990Z,21.85
2023-05-12T15:29:18.785Z,21.66
2023-05-12T15:31:49.145Z,22.05
2023-05-12T15:34:17.876Z,21.62
2023-05-12T15:36:49.325Z,21.56
2023-05-12T15:39:17.507Z,21.44
2023-05-12T15:41:45.799Z,21.84
2023-05-12T15:44:14.472Z,22.39
2023-05-12T15:46:42.930Z,21.79
2023-05-12T15:49:11.210Z,21.63
2023-05-12T15:51:40.204Z,21.94
2023-05-12T15:54:10.370Z,22.13
2023-05-12T15:56:38.922Z,21.77
2023-05-12T15:59:07.917Z,22.21
2023-05-12T16:01:36.246Z,21.61
2023-05-12T16:04:04.702Z,21.60
2023-05-12T16:06:33.262Z,20.57
2023-05-12T16:09:01.412Z,21.38
2023-05-12T16:11:30.927Z,21.72
2023-05-12T16:14:00.965Z,21.06
2023-05-12T16:16:29.131Z,20.95
2023-05-12T16:18:57.922Z,20.51
2023-05-12T16:21:26.155Z,21.31
2023-05-12T16:23:54.260Z,20.68
2023-05-12T16:26:23.880Z,20.38
2023-05-12T16:28:54.076Z,20.88
2023-05-12T16:31:22.620Z,19.82
2023-05-12T16:33:51.203Z,20.18
2023-05-12T16:36:19.877Z,20.81
2023-05-12T16:38:48.377Z,19.94
2023-05-12T16:41:16.979Z,19.43
2023-05-12T16:43:45.107Z,19.92
2023-05-12T16:46:15.020Z,20.21
2023-05-12T16:48:43.904Z,19.90
2023-05-12T16:51:12.618Z,19.58
2023-05-12T16:53:41.099Z,19.90
2023-05-12T16:56:09.805Z,19.91
2023-05-12T16:58:38.197Z,19.84
2023-05-12T17:01:06.629Z,19.65
2023-05-12T17:03:36.969Z,20.02
2023-05-12T17:06:05.517Z,20.40
2023-05-12T17:08:36.026Z,20.14
2023-05-12T17:11:06.332Z,20.37
2023-05-12T17:13:37.185Z,20.24
2023-05-12T17:16:06.274Z,20.42
2023-05-12T17:19:13.666Z,20.23
2023-05-12T17:21:24.055Z,19.51
2023-05-12T17:23:53.460Z,19.74
2023-05-12T17:26:23.076Z,19.73
2023-05-12T17:28:51.677Z,19.55
2023-05-12T17:31:20.396Z,19.96
2023-05-12T17:33:49.784Z,19.87
2023-05-12T17:36:18.678Z,19.56
2023-05-12T17:38:47.766Z,19.15
2023-05-12T17:41:16.245Z,19.59
2023-05-12T17:43:44.405Z,19.10
2023-05-12T17:46:13.011Z,19.15
2023-05-12T17:48:41.174Z,18.85
2023-05-12T17:51:10.431Z,19.10
2023-05-12T17:53:39.153Z,19.27
2023-05-12T17:56:07.579Z,18.97
2023-05-12T17:58:36.229Z,18.53
2023-05-12T18:01:04.409Z,18.41
2023-05-12T18:03:32.518Z,18.40
2023-05-12T18:06:00.486Z,18.25
2023-05-12T18:08:30.320Z,17.81
2023-05-12T18:10:58.482Z,17.73
2023-05-12T18:13:26.706Z,18.15
2023-05-12T18:15:55.196Z,18.00
2023-05-12T18:18:24.617Z,18.27
2023-05-12T18:20:52.928Z,17.62
2023-05-12T18:23:21.351Z,18.18
2023-05-12T18:25:51.168Z,17.83
2023-05-12T18:28:19.260Z,17.58
2023-05-12T18:30:48.147Z,17.55
2023-05-12T18:33:16.380Z,17.73
2023-05-12T18:35:44.656Z,17.47
2023-05-12T18:38:13.174Z,17.56
2023-05-12T18:40:41.423Z,17.19
2023-05-12T18:43:11.271Z,17.09
2023-05-12T18:45:40.045Z,17.12
2023-05-12T18:48:08.380Z,16.88
2023-05-12T18:50:36.654Z,17.13
2023-05-12T18:53:05.248Z,16.91
2023-05-12T18:55:33.374Z,16.96
2023-05-12T18:58:02.047Z,16.50
2023-05-12T19:00:35.178Z,16.64
2023-05-12T19:03:03.653Z,16.61
2023-05-12T19:05:32.333Z,16.64
2023-05-12T19:08:00.886Z,16.62
2023-05-12T19:10:28.884Z,16.43
2023-05-12T19:12:57.020Z,16.37
2023-05-12T19:15:26.049Z,16.35
2023-05-12T19:17:55.856Z,15.96
2023-05-12T19:20:24.621Z,15.91
2023-05-12T19:22:53.410Z,15.69
2023-05-12T19:25:22.419Z,15.90
2023-05-12T19:27:51.087Z,15.75
2023-05-12T19:30:19.975Z,15.69
2023-05-12T19:32:50.206Z,15.75
2023-05-12T19:35:31.051Z,15.76
2023-05-12T19:37:59.216Z,15.46
2023-05-12T19:40:27.415Z,15.91
2023-05-12T19:42:56.666Z,16.00
2023-05-12T19:45:25.522Z,15.64
2023-05-12T19:47:54.510Z,16.01
2023-05-12T19:50:24.884Z,15.93
2023-05-12T19:52:53.579Z,15.89
2023-05-12T19:55:24.091Z,15.84
2023-05-12T19:57:53.196Z,16.22
2023-05-12T20:00:22.330Z,16.21
2023-05-12T20:02:51.277Z,15.97
2023-05-12T20:05:19.944Z,15.99
2023-05-12T20:07:49.789Z,15.86
2023-05-12T20:10:18.369Z,15.79
2023-05-12T20:12:46.297Z,15.45
2023-05-12T20:15:14.428Z,15.50
2023-05-12T20:17:42.692Z,15.88
2023-05-12T20:20:12.587Z,15.66
2023-05-12T20:22:41.088Z,15.49
2023-05-12T20:25:14.371Z,15.89
2023-05-12T20:27:42.632Z,15.97
2023-05-12T20:30:12.141Z,15.86
2023-05-12T20:32:40.549Z,15.62
2023-05-12T20:35:09.332Z,15.67
2023-05-12T20:37:38.771Z,15.56
2023-05-12T20:40:08.356Z,15.72
2023-05-12T20:42:37.864Z,15.59
2023-05-12T20:47:53.276Z,15.88
2023-05-12T20:50:23.744Z,16.00
2023-05-12T20:52:52.114Z,15.79
2023-05-12T20:55:21.248Z,15.96
2023-05-12T20:57:51.334Z,16.03
2023-05-12T21:00:20.390Z,15.61
2023-05-12T21:02:52.612Z,15.40
2023-05-12T21:05:21.143Z,15.55
2023-05-12T21:07:49.368Z,15.45
2023-05-12T21:10:18.060Z,15.41
2023-05-12T21:12:46.181Z,15.34
2023-05-12T21:15:15.800Z,15.46
2023-05-12T21:17:44.262Z,15.00
2023-05-12T21:20:13.470Z,15.06
2023-05-12T21:22:41.747Z,14.97
2023-05-12T21:25:10.808Z,14.64
2023-05-12T21:27:41.526Z,15.16
2023-05-12T21:30:11.688Z,14.53
2023-05-12T21:32:41.350Z,14.52
2023-05-12T21:35:10.158Z,14.24
2023-05-12T21:37:38.922Z,14.79
2023-05-12T21:40:08.463Z,14.36
2023-05-12T21:42:36.622Z,14.36
2023-05-12T21:45:05.943Z,14.54
2023-05-12T21:47:34.211Z,14.44
2023-05-12T21:50:04.526Z,14.45
2023-05-12T21:52:33.623Z,14.34
2023-05-12T21:55:04.973Z,14.55
2023-05-12T21:57:33.768Z,14.45
2023-05-12T22:00:04.177Z,14.39
2023-05-12T22:02:32.700Z,14.28
2023-05-12T22:05:01.592Z,14.14
2023-05-12T22:07:31.655Z,14.32
2023-05-12T22:09:59.780Z,14.41
2023-05-12T22:12:28.521Z,14.24
2023-05-12T22:14:56.586Z,14.33
2023-05-12T22:17:24.934Z,14.35
2023-05-12T22:19:53.356Z,14.02
2023-05-12T22:22:21.973Z,14.33
2023-05-12T22:24:52.181Z,14.49
2023-05-12T22:27:22.772Z,14.53
2023-05-12T22:29:50.994Z,14.31
2023-05-12T22:32:18.817Z,14.23
2023-05-12T22:34:47.266Z,14.37
2023-05-12T22:37:15.304Z,14.24
2023-05-12T22:39:43.372Z,14.45
2023-05-12T22:42:12.966Z,14.40
2023-05-12T22:44:40.867Z,14.13
2023-05-12T22:47:08.936Z,14.28
2023-05-12T22:49:37.880Z,14.03
2023-05-12T22:52:06.597Z,14.14
2023-05-12T22:54:34.879Z,14.27
2023-05-12T22:57:03.580Z,14.12
2023-05-12T22:59:33.134Z,14.25
2023-05-12T23:02:01.194Z,13.74
2023-05-12T23:04:29.743Z,13.63
2023-05-12T23:06:57.809Z,14.03
2023-05-12T23:09:26.141Z,13.89
2023-05-12T23:11:54.547Z,14.00
2023-05-12T23:14:22.752Z,14.17
2023-05-12T23:16:52.121Z,14.14
2023-05-12T23:19:20.562Z,14.08
2023-05-12T23:21:48.656Z,14.02
2023-05-12T23:24:17.010Z,13.99
2023-05-12T23:26:45.367Z,14.08
2023-05-12T23:29:13.426Z,14.01
2023-05-12T23:31:42.427Z,14.14
2023-05-12T23:34:12.214Z,14.14
2023-05-12T23:36:40.170Z,14.26
2023-05-12T23:39:10.169Z,14.28
2023-05-12T23:41:38.344Z,13.94
2023-05-12T23:44:06.735Z,14.38
2023-05-12T23:46:35.298Z,14.20
2023-05-12T23:49:03.689Z,14.35
2023-05-12T23:51:34.523Z,14.08
2023-05-12T23:54:03.205Z,14.14
2023-05-12T23:56:31.427Z,14.07
2023-05-12T23:58:59.759Z,14.12
